createdAt,value
2018-12-04T00:05:46.327Z,10.50
2018-12-04T00:11:49.644Z,10.50
2018-12-04T00:17:53.037Z,10.50
2018-12-04T00:23:56.366Z,10.50
2018-12-04T00:29:59.706Z,10.60
2018-12-04T00:36:03.048Z,10.60
2018-12-04T00:42:06.361Z,10.60
2018-12-04T00:48:09.693Z,10.60
2018-12-04T00:54:12.997Z,10.50
2018-12-04T01:00:16.453Z,10.50
2018-12-04T01:06:19.785Z,10.40
2018-12-04T01:12:23.104Z,10.30
2018-12-04T01:18:26.503Z,10.00
2018-12-04T01:24:29.816Z,9.80
2018-12-04T01:30:33.221Z,9.50
2018-12-04T01:36:36.533Z,9.30
2018-12-04T01:42:39.853Z,9.10
2018-12-04T01:54:52.624Z,8.80
2018-12-04T02:00:55.929Z,8.70
2018-12-04T02:06:59.259Z,8.70
2018-12-04T02:13:02.561Z,8.50
2018-12-04T02:19:05.910Z,8.40
2018-12-04T02:25:09.225Z,8.30
2018-12-04T02:31:12.524Z,8.30
2018-12-04T02:37:15.822Z,8.20
2018-12-04T02:43:19.166Z,8.10
2018-12-04T02:49:22.460Z,8.20
2018-12-04T02:55:25.764Z,8.20
2018-12-04T03:01:29.052Z,8.20
2018-12-04T03:07:32.365Z,8.20
2018-12-04T03:13:35.662Z,8.10
2018-12-04T03:19:39.002Z,8.00
2018-12-04T03:25:42.317Z,8.00
2018-12-04T03:31:45.664Z,7.90
2018-12-04T03:37:49.083Z,7.90
2018-12-04T03:43:52.463Z,7.90
2018-12-04T03:49:55.767Z,7.90
2018-12-04T03:55:59.086Z,7.90
2018-12-04T04:02:02.443Z,7.90
2018-12-04T04:08:05.765Z,7.80
2018-12-04T04:14:09.075Z,7.70
2018-12-04T04:20:12.391Z,7.80
2018-12-04T04:26:15.717Z,7.70
2018-12-04T04:32:19.114Z,7.60
2018-12-04T04:38:22.445Z,7.50
2018-12-04T04:44:25.769Z,7.40
2018-12-04T04:50:29.226Z,7.40
2018-12-04T04:56:32.551Z,7.40
2018-12-04T05:02:35.873Z,7.40
2018-12-04T05:08:39.178Z,7.30
2018-12-04T05:14:42.485Z,7.10
2018-12-04T05:20:45.800Z,7.00
2018-12-04T05:26:49.133Z,6.90
2018-12-04T05:32:52.496Z,6.90
2018-12-04T05:38:55.811Z,6.90
2018-12-04T05:44:59.131Z,6.90
2018-12-04T05:51:02.453Z,6.90
2018-12-04T05:57:05.771Z,6.90
2018-12-04T06:03:09.075Z,6.90
2018-12-04T06:09:12.399Z,6.90
2018-12-04T06:15:15.742Z,7.00
2018-12-04T06:21:19.053Z,7.00
2018-12-04T06:27:22.404Z,7.00
2018-12-04T06:33:25.711Z,6.90
2018-12-04T06:39:29.020Z,7.10
2018-12-04T06:45:32.339Z,7.10
2018-12-04T06:51:35.665Z,7.10
2018-12-04T06:57:38.968Z,7.10
2018-12-04T07:03:42.271Z,7.10
2018-12-04T07:09:45.593Z,7.10
2018-12-04T07:15:48.907Z,7.00
2018-12-04T07:21:52.205Z,6.90
2018-12-04T07:27:55.528Z,6.90
2018-12-04T07:33:58.849Z,6.80
2018-12-04T07:40:02.158Z,6.80
2018-12-04T07:46:05.466Z,6.80
2018-12-04T07:52:08.770Z,6.80
2018-12-04T07:58:12.087Z,6.80
2018-12-04T08:04:15.413Z,6.70
2018-12-04T08:10:18.725Z,6.80
2018-12-04T08:16:22.069Z,6.80
2018-12-04T08:22:25.374Z,6.90
2018-12-04T08:28:28.679Z,6.90
2018-12-04T08:34:32.011Z,6.80
2018-12-04T08:40:35.316Z,6.70
2018-12-04T08:46:38.628Z,6.70
2018-12-04T08:52:41.946Z,6.70
2018-12-04T08:58:45.277Z,6.70
2018-12-04T09:04:48.580Z,6.80
2018-12-04T09:10:51.884Z,6.80
2018-12-04T09:16:55.208Z,6.80
2018-12-04T09:22:58.653Z,6.90
2018-12-04T09:29:02.132Z,6.90
2018-12-04T09:35:05.969Z,7.00
2018-12-04T09:41:09.271Z,7.30
2018-12-04T09:47:12.577Z,7.20
2018-12-04T09:53:15.883Z,7.10
2018-12-04T09:59:19.295Z,7.00
2018-12-04T10:05:22.726Z,7.00
2018-12-04T10:11:26.050Z,7.10
2018-12-04T10:17:29.424Z,7.20
2018-12-04T10:23:32.748Z,7.20
2018-12-04T10:29:36.049Z,7.20
2018-12-04T10:35:49.376Z,7.20
2018-12-04T10:41:52.692Z,7.30
2018-12-04T10:47:56.026Z,7.40
2018-12-04T10:53:59.321Z,7.50
2018-12-04T11:00:02.631Z,7.80
2018-12-04T11:06:06.358Z,8.00
2018-12-04T11:12:12.204Z,8.20
2018-12-04T11:18:14.985Z,8.30
2018-12-04T11:24:18.296Z,8.20
2018-12-04T11:30:21.628Z,8.00
2018-12-04T11:36:24.939Z,8.00
2018-12-04T11:42:28.265Z,8.20
2018-12-04T11:48:31.579Z,8.00
2018-12-04T11:54:34.894Z,7.80
2018-12-04T12:00:38.210Z,7.70
2018-12-04T12:06:41.537Z,7.70
2018-12-04T12:12:45.653Z,7.50
2018-12-04T12:18:48.957Z,7.30
2018-12-04T12:24:52.546Z,7.30
2018-12-04T12:30:55.848Z,7.20
2018-12-04T12:36:59.164Z,7.20
2018-12-04T12:43:02.492Z,7.50
2018-12-04T12:49:05.798Z,7.60
2018-12-04T12:55:09.123Z,7.70
2018-12-04T13:01:12.524Z,7.90
2018-12-04T13:07:15.851Z,7.70
2018-12-04T13:13:19.172Z,7.70
2018-12-04T13:19:22.499Z,7.60
2018-12-04T13:25:25.822Z,7.40
2018-12-04T13:31:29.178Z,7.20
2018-12-04T13:37:32.516Z,7.10
2018-12-04T13:43:35.920Z,7.10
2018-12-04T13:49:39.217Z,7.10
2018-12-04T13:55:42.534Z,7.10
2018-12-04T14:01:45.949Z,7.10
2018-12-04T14:07:49.240Z,7.20
2018-12-04T14:13:52.607Z,7.00
2018-12-04T14:19:55.934Z,6.90
2018-12-04T14:25:59.235Z,6.80
2018-12-04T14:32:02.534Z,6.80
2018-12-04T14:38:05.955Z,6.70
2018-12-04T14:50:18.518Z,6.50
2018-12-04T14:56:21.868Z,6.50
2018-12-04T15:02:25.330Z,6.40
2018-12-04T15:08:28.856Z,6.30
2018-12-04T15:14:32.291Z,6.20
2018-12-04T15:20:35.703Z,6.10
2018-12-04T15:26:39.900Z,6.00
2018-12-04T15:32:43.240Z,5.80
2018-12-04T15:38:46.703Z,5.70
2018-12-04T15:44:50.101Z,5.60
2018-12-04T15:50:59.711Z,5.50
2018-12-04T15:56:58.848Z,5.50
2018-12-04T16:03:02.169Z,5.30
2018-12-04T16:09:07.320Z,5.20
2018-12-04T16:15:10.787Z,5.10
2018-12-04T16:21:14.197Z,5.00
2018-12-04T16:27:17.528Z,5.10
2018-12-04T16:33:20.837Z,5.00
2018-12-04T16:39:24.149Z,4.80
2018-12-04T16:45:27.531Z,4.60
2018-12-04T16:51:31.793Z,4.40
2018-12-04T16:57:35.109Z,4.20
2018-12-04T17:03:38.449Z,4.00
2018-12-04T17:09:41.769Z,4.00
2018-12-04T17:15:45.069Z,3.80
2018-12-04T17:21:48.374Z,3.70
2018-12-04T17:27:51.679Z,3.60
2018-12-04T17:33:55.168Z,3.50
2018-12-04T17:39:58.636Z,3.50
2018-12-04T17:46:01.976Z,3.40
2018-12-04T17:52:05.295Z,3.40
2018-12-04T17:58:08.632Z,3.30
2018-12-04T18:04:11.954Z,3.30
2018-12-04T18:10:15.289Z,3.30
2018-12-04T18:16:18.611Z,3.30
2018-12-04T18:22:22.072Z,3.40
2018-12-04T18:28:25.405Z,3.50
2018-12-04T18:34:28.727Z,3.40
2018-12-04T18:40:32.103Z,3.30
2018-12-04T18:46:35.411Z,3.30
2018-12-04T18:52:40.199Z,3.40
2018-12-04T18:58:43.505Z,3.30
2018-12-04T19:04:46.849Z,3.20
2018-12-04T19:10:50.200Z,3.10
2018-12-04T19:16:54.469Z,3.00
2018-12-04T19:22:57.948Z,2.80
2018-12-04T19:29:01.283Z,2.80
2018-12-04T19:35:07.447Z,2.70
2018-12-04T19:41:10.763Z,2.60
2018-12-04T19:47:14.084Z,2.50
2018-12-04T19:53:17.476Z,2.40
2018-12-04T19:59:20.785Z,2.40
2018-12-04T20:05:24.089Z,2.40
2018-12-04T20:11:27.416Z,2.40
2018-12-04T20:17:30.778Z,2.40
2018-12-04T20:23:34.185Z,2.30
2018-12-04T20:29:37.499Z,2.30
2018-12-04T20:35:40.815Z,2.30
2018-12-04T20:41:44.130Z,2.20
2018-12-04T20:47:47.444Z,2.20
2018-12-04T20:53:50.787Z,2.20
2018-12-04T20:59:54.128Z,2.20
2018-12-04T21:05:57.514Z,2.10
2018-12-04T21:12:00.901Z,2.10
2018-12-04T21:18:04.232Z,2.10
2018-12-04T21:24:07.562Z,2.20
2018-12-04T21:30:16.479Z,2.20
2018-12-04T21:36:25.311Z,2.20
2018-12-04T21:42:34.122Z,2.20
2018-12-04T21:48:37.437Z,2.20
2018-12-04T21:54:40.770Z,2.10
2018-12-04T22:00:44.140Z,1.90
2018-12-04T22:06:47.451Z,1.80
2018-12-04T22:12:50.772Z,1.70
2018-12-04T22:18:54.105Z,1.60
2018-12-04T22:24:57.443Z,1.50
2018-12-04T22:31:00.779Z,1.50
2018-12-04T22:37:04.093Z,1.40
2018-12-04T22:43:07.436Z,1.40
2018-12-04T22:49:10.757Z,1.50
2018-12-04T22:55:14.152Z,1.50
2018-12-04T23:07:50.906Z,1.40
2018-12-04T23:13:54.319Z,1.50
2018-12-04T23:19:57.657Z,1.70
2018-12-04T23:26:01.020Z,1.80
2018-12-04T23:32:04.371Z,1.80
2018-12-04T23:38:07.707Z,1.80
2018-12-04T23:44:11.050Z,1.80
2018-12-04T23:50:14.381Z,1.90
2018-12-04T23:56:17.703Z,1.80
